Ana Sayfa
METAR-TAF:

METAR-TAF

Havaalanları :

Lubbock, Teksas, Amerika Birleşik Devletleri

Enlem: 33-40-03N, Boylam: 101-49-17W, yükseklik: 1000 m

Güncel hava durumu gözlemi

Rapor saat 02:53 UTC de 1 saat ve 10 dakika önce yapıldı.
Rüzgar güney/güneydoğudan 8 kt
Sıcaklık 29°C
Nem 40%
Basınç 1016 hPa
Görüş mesafesi: 16.1 km
9000 ft yükseklikte az bulutlu
25000 ft yükseklikte az bulutlu

METAR: KLBB 160253Z 15008KT 10SM FEW090 FEW250 29/14 A2999 RMK AO2 SLP095 T02940144 53008

Saat: 23:03 (04:03 UTC)

Tahmin

Rapor saat 23:35 UTC de 4 saat ve 28 dakika önce yapıldı.
Ayın 16'si saat 00 UTC'den ayın 16'si saat 24 UTC'ye kadar geçerli Tahmin
Rüzgar değişken yönden 5 kt
Görüş mesafesi: 10 km
25000 ft yükseklikte az bulutlu
Ayın 16'si saat 1200 UTC'den
Rüzgar güney/güneybatıdan 6 kt
Görüş mesafesi: 10 km
25000 ft yükseklikte az bulutlu

TAF: KLBB 152335Z 1600/1624 VRB05KT P6SM FEW250 FM161200 20006KT P6SM FEW250

4.000'den fazla havaalanı için hava durumu gözlemleri ve tahminleri (METAR ve TAF raporları).

Kullanılabilir istasyonlar harita üzerinde sarı ve kırmızı noktalarla gösterilir.

İstasyonun adını görmek için fareyi noktanın üzerinde gezdirin.

Sonrasında hava gözlem ve tahminlerini görmek için tıklayın.

Haritayı değiştirmek için: yaklaştırmak için siyah artı işaretli yeşil düğmeye ve uzaklaştırmak için de eksi işaretli düğmeye hızla tıklayın; bitişik haritalar için yeşil okları kullanın.


METAR-TAF: